^^
Station Historical Data
Daily Summary for January 13, 2018 Units:  Both    English   Metric
« Previous Day
Next Day »
Daily Weekly Monthly Yearly Custom
  High: Low: Average:
Temperature: TemperatureF °F /  -17.8 °C 20.1 °F /  -6.6 °C 26.2 °F /  -3.2 °C
Dew Point: DewpointF °F /  -17.8 °C 14.4 °F /  -9.8 °C 21.1 °F /  -6.1 °C
Humidity: Humidity% 74% 80%
Wind Speed: WindSpeedMPHmph /  0km/h - 1.5mph /  2.4km/h
Wind Gust: WindSpeedGustMPHmph /  0km/h - -
Wind- - West
Pressure: PressureIn in /  0 hPa 29.97 in /  1014.8 hPa -
Precipitation: 0.00 in /  0 mm    
Historical Graphs
 
 
Tabular Data for January 13, 2018
Time Temperature Dew Point Pressure Wind Wind Speed Wind Gust Humidity Rainfall Rate (Hourly)
TemperatureF °F /  -17.8 °C DewpointF °F /  -17.8 °C PressureInin /  0hPa Calm     Humidity% HourlyPrecipInin /  0mm
00:03 26.1 °F /  -3.3 °C 23.0 °F /  -5 °C 29.98in /  1015.1hPa Calm   2.0mph /  3.2km/h 88% 0.00in /  0mm
00:08 26.1 °F /  -3.3 °C 22.6 °F /  -5.2 °C 29.98in /  1015.1hPa Calm   3.0mph /  4.8km/h 87% 0.00in /  0mm
00:14 26.2 °F /  -3.2 °C 23.2 °F /  -4.9 °C 29.99in /  1015.5hPa Calm     88% 0.00in /  0mm
00:21 26.2 °F /  -3.2 °C 22.8 °F /  -5.1 °C 29.99in /  1015.5hPa Calm   4.0mph /  6.4km/h 87% 0.00in /  0mm
00:32 26.2 °F /  -3.2 °C 22.8 °F /  -5.1 °C 29.98in /  1015.1hPa Calm   3.0mph /  4.8km/h 87% 0.00in /  0mm
00:37 26.2 °F /  -3.2 °C 23.2 °F /  -4.9 °C 29.98in /  1015.1hPa Calm   2.0mph /  3.2km/h 88% 0.00in /  0mm
00:43 26.2 °F /  -3.2 °C 22.8 °F /  -5.1 °C 29.98in /  1015.1hPa Calm   9.0mph /  14.5km/h 87% 0.00in /  0mm
00:53 26.4 °F /  -3.1 °C 23.0 °F /  -5 °C 29.98in /  1015.1hPa Calm   1.0mph /  1.6km/h 87% 0.00in /  0mm
00:59 26.4 °F /  -3.1 °C 23.0 °F /  -5 °C 29.99in /  1015.5hPa NW 0.9mph /  1.4km/h 12.0mph /  19.3km/h 87% 0.00in /  0mm
01:05 26.6 °F /  -3 °C 23.2 °F /  -4.9 °C 29.98in /  1015.1hPa Calm   6.0mph /  9.7km/h 87% 0.00in /  0mm
01:10 26.8 °F /  -2.9 °C 23.2 °F /  -4.9 °C 29.98in /  1015.1hPa NW 0.9mph /  1.4km/h 3.0mph /  4.8km/h 86% 0.00in /  0mm
01:18 27.0 °F /  -2.8 °C 23.5 °F /  -4.7 °C 29.98in /  1015.1hPa NE 0.9mph /  1.4km/h 2.0mph /  3.2km/h 87% 0.00in /  0mm
01:28 27.0 °F /  -2.8 °C 23.4 °F /  -4.8 °C 29.98in /  1015.1hPa Calm   12.0mph /  19.3km/h 86% 0.00in /  0mm
01:36 27.0 °F /  -2.8 °C 23.4 °F /  -4.8 °C 29.97in /  1014.8hPa NW 2.0mph /  3.2km/h 3.0mph /  4.8km/h 86% 0.00in /  0mm
01:42 27.0 °F /  -2.8 °C 23.4 °F /  -4.8 °C 29.98in /  1015.1hPa Calm   3.0mph /  4.8km/h 86% 0.00in /  0mm
01:47 27.0 °F /  -2.8 °C 23.4 °F /  -4.8 °C 29.97in /  1014.8hPa West 2.9mph /  4.7km/h 9.0mph /  14.5km/h 86% 0.00in /  0mm
01:55 27.0 °F /  -2.8 °C 23.4 °F /  -4.8 °C 29.98in /  1015.1hPa West 0.9mph /  1.4km/h 1.0mph /  1.6km/h 86% 0.00in /  0mm
02:01 27.0 °F /  -2.8 °C 23.4 °F /  -4.8 °C 29.98in /  1015.1hPa West 2.0mph /  3.2km/h 4.0mph /  6.4km/h 86% 0.00in /  0mm
02:06 27.0 °F /  -2.8 °C 23.4 °F /  -4.8 °C 29.98in /  1015.1hPa Calm   7.0mph /  11.3km/h 86% 0.00in /  0mm
02:11 27.1 °F /  -2.7 °C 23.5 °F /  -4.7 °C 29.98in /  1015.1hPa West 0.9mph /  1.4km/h 6.0mph /  9.7km/h 86% 0.00in /  0mm
02:19 27.1 °F /  -2.7 °C 23.5 °F /  -4.7 °C 29.98in /  1015.1hPa WSW 2.0mph /  3.2km/h 4.0mph /  6.4km/h 86% 0.00in /  0mm
02:24 27.3 °F /  -2.6 °C 23.4 °F /  -4.8 °C 29.98in /  1015.1hPa WNW 2.0mph /  3.2km/h 10.0mph /  16.1km/h 85% 0.00in /  0mm
02:30 27.3 °F /  -2.6 °C 23.4 °F /  -4.8 °C 29.98in /  1015.1hPa Calm   8.0mph /  12.9km/h 85% 0.00in /  0mm
02:38 27.1 °F /  -2.7 °C 23.2 °F /  -4.9 °C 29.99in /  1015.5hPa NNW 0.9mph /  1.4km/h 4.0mph /  6.4km/h 85% 0.00in /  0mm
02:48 27.3 °F /  -2.6 °C 23.4 °F /  -4.8 °C 30.00in /  1015.8hPa WNW 2.0mph /  3.2km/h 10.0mph /  16.1km/h 85% 0.00in /  0mm
02:53 27.3 °F /  -2.6 °C 23.4 °F /  -4.8 °C 30.00in /  1015.8hPa NW 2.0mph /  3.2km/h 9.0mph /  14.5km/h 85% 0.00in /  0mm
02:58 27.1 °F /  -2.7 °C 23.2 °F /  -4.9 °C 30.01in /  1016.1hPa WSW 2.0mph /  3.2km/h 3.0mph /  4.8km/h 85% 0.00in /  0mm
03:13 27.3 °F /  -2.6 °C 23.4 °F /  -4.8 °C 30.02in /  1016.5hPa NNE 2.0mph /  3.2km/h 9.0mph /  14.5km/h 85% 0.00in /  0mm
03:18 27.3 °F /  -2.6 °C 23.7 °F /  -4.6 °C 30.03in /  1016.8hPa Calm   4.0mph /  6.4km/h 86% 0.00in /  0mm
03:23 27.3 °F /  -2.6 °C 23.4 °F /  -4.8 °C 30.03in /  1016.8hPa Calm   12.0mph /  19.3km/h 85% 0.00in /  0mm
03:34 27.5 °F /  -2.5 °C 23.9 °F /  -4.5 °C 30.03in /  1016.8hPa West 0.9mph /  1.4km/h 3.0mph /  4.8km/h 86% 0.00in /  0mm
03:39 27.5 °F /  -2.5 °C 23.9 °F /  -4.5 °C 30.04in /  1017.2hPa Calm   6.0mph /  9.7km/h 86% 0.00in /  0mm
03:46 27.5 °F /  -2.5 °C 23.9 °F /  -4.5 °C 30.04in /  1017.2hPa Calm   3.0mph /  4.8km/h 86% 0.00in /  0mm
03:55 27.7 °F /  -2.4 °C 24.1 °F /  -4.4 °C 30.05in /  1017.5hPa Calm   3.0mph /  4.8km/h 86% 0.00in /  0mm
04:01 27.7 °F /  -2.4 °C 24.3 °F /  -4.3 °C 30.05in /  1017.5hPa Calm   1.0mph /  1.6km/h 87% 0.00in /  0mm
04:08 27.5 °F /  -2.5 °C 23.9 °F /  -4.5 °C 30.06in /  1017.8hPa Calm   6.0mph /  9.7km/h 86% 0.00in /  0mm
04:14 27.7 °F /  -2.4 °C 24.3 °F /  -4.3 °C 30.06in /  1017.8hPa Calm   2.0mph /  3.2km/h 87% 0.00in /  0mm
04:19 27.7 °F /  -2.4 °C 24.1 °F /  -4.4 °C 30.06in /  1017.8hPa Calm   5.0mph /  8km/h 86% 0.00in /  0mm
04:29 27.5 °F /  -2.5 °C 23.9 °F /  -4.5 °C 30.07in /  1018.2hPa WNW 0.9mph /  1.4km/h 5.0mph /  8km/h 86% 0.00in /  0mm
04:34 27.7 °F /  -2.4 °C 24.1 °F /  -4.4 °C 30.08in /  1018.5hPa NNE 0.9mph /  1.4km/h 6.0mph /  9.7km/h 86% 0.00in /  0mm
04:45 27.7 °F /  -2.4 °C 24.1 °F /  -4.4 °C 30.08in /  1018.5hPa Calm   6.0mph /  9.7km/h 86% 0.00in /  0mm
04:50 27.7 °F /  -2.4 °C 24.1 °F /  -4.4 °C 30.09in /  1018.8hPa North 2.9mph /  4.7km/h 10.0mph /  16.1km/h 86% 0.00in /  0mm
05:04 27.7 °F /  -2.4 °C 23.7 °F /  -4.6 °C 30.10in /  1019.2hPa Calm   3.0mph /  4.8km/h 85% 0.00in /  0mm
05:14 27.7 °F /  -2.4 °C 23.5 °F /  -4.7 °C 30.10in /  1019.2hPa NE 0.9mph /  1.4km/h 1.0mph /  1.6km/h 84% 0.00in /  0mm
05:26 27.7 °F /  -2.4 °C 23.5 °F /  -4.7 °C 30.11in /  1019.5hPa NNW 4.9mph /  7.9km/h 6.0mph /  9.7km/h 84% 0.00in /  0mm
05:34 27.9 °F /  -2.3 °C 23.9 °F /  -4.5 °C 30.11in /  1019.5hPa WNW 4.0mph /  6.4km/h 6.0mph /  9.7km/h 85% 0.00in /  0mm
05:45 27.7 °F /  -2.4 °C 23.5 °F /  -4.7 °C 30.11in /  1019.5hPa Calm   4.0mph /  6.4km/h 84% 0.00in /  0mm
05:55 27.5 °F /  -2.5 °C 23.4 °F /  -4.8 °C 30.12in /  1019.9hPa Calm   3.0mph /  4.8km/h 84% 0.00in /  0mm
06:00 27.5 °F /  -2.5 °C 23.5 °F /  -4.7 °C 30.12in /  1019.9hPa Calm   7.0mph /  11.3km/h 85% 0.00in /  0mm
06:15 27.3 °F /  -2.6 °C 23.2 °F /  -4.9 °C 30.14in /  1020.5hPa NW 4.9mph /  7.9km/h 5.0mph /  8km/h 84% 0.00in /  0mm
06:21 27.3 °F /  -2.6 °C 23.2 °F /  -4.9 °C 30.14in /  1020.5hPa WNW 4.9mph /  7.9km/h 5.0mph /  8km/h 84% 0.00in /  0mm
06:29 27.3 °F /  -2.6 °C 22.8 °F /  -5.1 °C 30.14in /  1020.5hPa WNW 0.9mph /  1.4km/h 4.0mph /  6.4km/h 83% 0.00in /  0mm
06:43 27.3 °F /  -2.6 °C 23.2 °F /  -4.9 °C 30.16in /  1021.2hPa Calm   4.0mph /  6.4km/h 84% 0.00in /  0mm
06:55 27.3 °F /  -2.6 °C 23.2 °F /  -4.9 °C 30.16in /  1021.2hPa Calm   5.0mph /  8km/h 84% 0.00in /  0mm
07:00 27.3 °F /  -2.6 °C 23.2 °F /  -4.9 °C 30.16in /  1021.2hPa NNW 2.9mph /  4.7km/h 8.0mph /  12.9km/h 84% 0.00in /  0mm
07:08 27.1 °F /  -2.7 °C 23.2 °F /  -4.9 °C 30.17in /  1021.6hPa Calm   4.0mph /  6.4km/h 85% 0.00in /  0mm
07:18 27.1 °F /  -2.7 °C 23.2 °F /  -4.9 °C 30.18in /  1021.9hPa Calm   2.0mph /  3.2km/h 85% 0.00in /  0mm
07:23 27.1 °F /  -2.7 °C 23.2 °F /  -4.9 °C 30.18in /  1021.9hPa NNW 8.1mph /  13km/h 8.1mph /  13km/h 85% 0.00in /  0mm
07:28 27.1 °F /  -2.7 °C 23.2 °F /  -4.9 °C 30.19in /  1022.2hPa Calm   2.0mph /  3.2km/h 85% 0.00in /  0mm
07:33 27.1 °F /  -2.7 °C 23.2 °F /  -4.9 °C 30.19in /  1022.2hPa WNW 0.9mph /  1.4km/h 4.0mph /  6.4km/h 85% 0.00in /  0mm
07:45 27.1 °F /  -2.7 °C 23.2 °F /  -4.9 °C 30.20in /  1022.6hPa WNW 2.9mph /  4.7km/h 4.0mph /  6.4km/h 85% 0.00in /  0mm
07:56 27.0 °F /  -2.8 °C 23.0 °F /  -5 °C 30.21in /  1022.9hPa WNW 2.0mph /  3.2km/h 9.0mph /  14.5km/h 85% 0.00in /  0mm
08:03 27.0 °F /  -2.8 °C 22.8 °F /  -5.1 °C 30.22in /  1023.2hPa Calm   3.0mph /  4.8km/h 84% 0.00in /  0mm
08:08 27.0 °F /  -2.8 °C 22.8 °F /  -5.1 °C 30.22in /  1023.2hPa SW 8.1mph /  13km/h 10.0mph /  16.1km/h 84% 0.00in /  0mm
08:16 27.0 °F /  -2.8 °C 22.3 °F /  -5.4 °C 30.23in /  1023.6hPa WNW 0.9mph /  1.4km/h 9.0mph /  14.5km/h 82% 0.00in /  0mm
08:28 27.0 °F /  -2.8 °C 21.9 °F /  -5.6 °C 30.24in /  1023.9hPa West 4.0mph /  6.4km/h 4.0mph /  6.4km/h 81% 0.00in /  0mm
08:34 27.0 °F /  -2.8 °C 21.9 °F /  -5.6 °C 30.24in /  1023.9hPa NNE 2.9mph /  4.7km/h 8.0mph /  12.9km/h 81% 0.00in /  0mm
08:39 27.0 °F /  -2.8 °C 21.9 °F /  -5.6 °C 30.25in /  1024.3hPa Calm   2.0mph /  3.2km/h 81% 0.00in /  0mm
08:48 27.0 °F /  -2.8 °C 21.9 °F /  -5.6 °C 30.25in /  1024.3hPa NW 2.0mph /  3.2km/h 2.0mph /  3.2km/h 81% 0.00in /  0mm
08:53 27.0 °F /  -2.8 °C 21.9 °F /  -5.6 °C 30.25in /  1024.3hPa WSW 2.9mph /  4.7km/h 3.0mph /  4.8km/h 81% 0.00in /  0mm
09:03 26.8 °F /  -2.9 °C 21.7 °F /  -5.7 °C 30.26in /  1024.6hPa Calm   4.0mph /  6.4km/h 81% 0.00in /  0mm
09:12 27.0 °F /  -2.8 °C 21.9 °F /  -5.6 °C 30.26in /  1024.6hPa NNE 0.9mph /  1.4km/h 1.0mph /  1.6km/h 81% 0.00in /  0mm
09:17 27.0 °F /  -2.8 °C 22.3 °F /  -5.4 °C 30.27in /  1024.9hPa Calm   1.0mph /  1.6km/h 82% 0.00in /  0mm
09:24 27.0 °F /  -2.8 °C 21.9 °F /  -5.6 °C 30.27in /  1024.9hPa Calm   6.0mph /  9.7km/h 81% 0.00in /  0mm
09:29 27.0 °F /  -2.8 °C 21.9 °F /  -5.6 °C 30.27in /  1024.9hPa Calm   3.0mph /  4.8km/h 81% 0.00in /  0mm
09:44 26.8 °F /  -2.9 °C 21.7 °F /  -5.7 °C 30.28in /  1025.3hPa NW 2.0mph /  3.2km/h 9.0mph /  14.5km/h 81% 0.00in /  0mm
09:49 26.8 °F /  -2.9 °C 21.7 °F /  -5.7 °C 30.29in /  1025.6hPa West 8.1mph /  13km/h 8.1mph /  13km/h 81% 0.00in /  0mm
09:57 27.0 °F /  -2.8 °C 22.3 °F /  -5.4 °C 30.29in /  1025.6hPa NW 2.9mph /  4.7km/h 5.0mph /  8km/h 82% 0.00in /  0mm
10:03 27.0 °F /  -2.8 °C 21.9 °F /  -5.6 °C 30.30in /  1026hPa North 2.0mph /  3.2km/h 6.0mph /  9.7km/h 81% 0.00in /  0mm
10:09 27.0 °F /  -2.8 °C 21.9 °F /  -5.6 °C 30.31in /  1026.3hPa NNW 2.0mph /  3.2km/h 6.0mph /  9.7km/h 81% 0.00in /  0mm
10:14 27.0 °F /  -2.8 °C 21.9 °F /  -5.6 °C 30.31in /  1026.3hPa Calm   6.0mph /  9.7km/h 81% 0.00in /  0mm
10:21 27.0 °F /  -2.8 °C 21.9 °F /  -5.6 °C 30.32in /  1026.6hPa Calm   5.0mph /  8km/h 81% 0.00in /  0mm
10:31 27.1 °F /  -2.7 °C 22.5 °F /  -5.3 °C 30.32in /  1026.6hPa West 2.0mph /  3.2km/h 4.0mph /  6.4km/h 82% 0.00in /  0mm
10:40 27.1 °F /  -2.7 °C 22.5 °F /  -5.3 °C 30.32in /  1026.6hPa Calm     82% 0.00in /  0mm
10:45 27.3 °F /  -2.6 °C 22.6 °F /  -5.2 °C 30.32in /  1026.6hPa WNW 0.9mph /  1.4km/h 2.0mph /  3.2km/h 82% 0.00in /  0mm
10:50 27.3 °F /  -2.6 °C 22.6 °F /  -5.2 °C 30.32in /  1026.6hPa Calm   9.0mph /  14.5km/h 82% 0.00in /  0mm
10:57 27.7 °F /  -2.4 °C 22.8 °F /  -5.1 °C 30.32in /  1026.6hPa Calm   7.0mph /  11.3km/h 82% 0.00in /  0mm
11:02 27.7 °F /  -2.4 °C 22.6 °F /  -5.2 °C 30.32in /  1026.6hPa WNW 2.0mph /  3.2km/h 11.0mph /  17.7km/h 81% 0.00in /  0mm
11:07 27.5 °F /  -2.5 °C 22.8 °F /  -5.1 °C 30.33in /  1027hPa NW 2.0mph /  3.2km/h 8.0mph /  12.9km/h 82% 0.00in /  0mm
11:15 27.5 °F /  -2.5 °C 22.8 °F /  -5.1 °C 30.33in /  1027hPa NW 0.9mph /  1.4km/h 13.0mph /  20.9km/h 82% 0.00in /  0mm
11:23 27.3 °F /  -2.6 °C 22.6 °F /  -5.2 °C 30.34in /  1027.3hPa WNW 4.0mph /  6.4km/h 8.0mph /  12.9km/h 82% 0.00in /  0mm
11:31 27.1 °F /  -2.7 °C 22.5 °F /  -5.3 °C 30.34in /  1027.3hPa Calm   2.0mph /  3.2km/h 82% 0.00in /  0mm
11:36 27.1 °F /  -2.7 °C 22.6 °F /  -5.2 °C 30.34in /  1027.3hPa NW 2.9mph /  4.7km/h 5.0mph /  8km/h 83% 0.00in /  0mm
11:43 27.1 °F /  -2.7 °C 22.5 °F /  -5.3 °C 30.35in /  1027.7hPa NNE 4.0mph /  6.4km/h 9.0mph /  14.5km/h 82% 0.00in /  0mm
11:54 27.5 °F /  -2.5 °C 22.8 °F /  -5.1 °C 30.35in /  1027.7hPa NW 0.9mph /  1.4km/h 11.0mph /  17.7km/h 82% 0.00in /  0mm
11:59 27.7 °F /  -2.4 °C 22.8 °F /  -5.1 °C 30.35in /  1027.7hPa NW 2.0mph /  3.2km/h 8.0mph /  12.9km/h 82% 0.00in /  0mm
12:09 27.9 °F /  -2.3 °C 22.5 °F /  -5.3 °C 30.36in /  1028hPa ENE 0.9mph /  1.4km/h 10.0mph /  16.1km/h 80% 0.00in /  0mm
12:18 28.0 °F /  -2.2 °C 23.0 °F /  -5 °C 30.35in /  1027.7hPa NW 2.0mph /  3.2km/h 10.0mph /  16.1km/h 81% 0.00in /  0mm
12:27 28.0 °F /  -2.2 °C 22.6 °F /  -5.2 °C 30.36in /  1028hPa NW 2.9mph /  4.7km/h 8.0mph /  12.9km/h 80% 0.00in /  0mm
12:32 28.2 °F /  -2.1 °C 23.2 °F /  -4.9 °C 30.36in /  1028hPa Calm   4.0mph /  6.4km/h 81% 0.00in /  0mm
12:37 28.4 °F /  -2 °C 22.6 °F /  -5.2 °C 30.36in /  1028hPa North 2.0mph /  3.2km/h 11.0mph /  17.7km/h 79% 0.00in /  0mm
12:48 28.6 °F /  -1.9 °C 23.2 °F /  -4.9 °C 30.36in /  1028hPa Calm   5.0mph /  8km/h 80% 0.00in /  0mm
12:57 28.6 °F /  -1.9 °C 22.8 °F /  -5.1 °C 30.36in /  1028hPa WNW 2.9mph /  4.7km/h 6.0mph /  9.7km/h 79% 0.00in /  0mm
13:05 28.6 °F /  -1.9 °C 22.6 °F /  -5.2 °C 30.36in /  1028hPa Calm   9.0mph /  14.5km/h 78% 0.00in /  0mm
13:10 28.6 °F /  -1.9 °C 22.6 °F /  -5.2 °C 30.36in /  1028hPa Calm   8.0mph /  12.9km/h 78% 0.00in /  0mm
13:19 28.8 °F /  -1.8 °C 22.8 °F /  -5.1 °C 30.36in /  1028hPa Calm   3.0mph /  4.8km/h 78% 0.00in /  0mm
13:26 28.8 °F /  -1.8 °C 22.5 °F /  -5.3 °C 30.36in /  1028hPa WNW 0.9mph /  1.4km/h 5.0mph /  8km/h 77% 0.00in /  0mm
13:33 28.8 °F /  -1.8 °C 22.5 °F /  -5.3 °C 30.36in /  1028hPa Calm   1.0mph /  1.6km/h 77% 0.00in /  0mm
13:38 28.9 °F /  -1.7 °C 22.6 °F /  -5.2 °C 30.36in /  1028hPa Calm   5.0mph /  8km/h 77% 0.00in /  0mm
13:43 28.9 °F /  -1.7 °C 22.6 °F /  -5.2 °C 30.37in /  1028.3hPa Calm   1.0mph /  1.6km/h 77% 0.00in /  0mm
13:52 29.3 °F /  -1.5 °C 23.0 °F /  -5 °C 30.37in /  1028.3hPa NNW 0.9mph /  1.4km/h 3.0mph /  4.8km/h 77% 0.00in /  0mm
14:06 28.8 °F /  -1.8 °C 22.5 °F /  -5.3 °C 30.37in /  1028.3hPa NW 0.9mph /  1.4km/h 8.0mph /  12.9km/h 77% 0.00in /  0mm
14:15 28.9 °F /  -1.7 °C 22.3 °F /  -5.4 °C 30.37in /  1028.3hPa Calm   7.0mph /  11.3km/h 76% 0.00in /  0mm
14:20 28.9 °F /  -1.7 °C 22.3 °F /  -5.4 °C 30.37in /  1028.3hPa North 2.9mph /  4.7km/h 6.0mph /  9.7km/h 76% 0.00in /  0mm
14:25 28.8 °F /  -1.8 °C 22.5 °F /  -5.3 °C 30.37in /  1028.3hPa NW 2.9mph /  4.7km/h 7.0mph /  11.3km/h 77% 0.00in /  0mm
14:31 28.6 °F /  -1.9 °C 21.9 °F /  -5.6 °C 30.38in /  1028.7hPa Calm   6.0mph /  9.7km/h 76% 0.00in /  0mm
14:36 28.6 °F /  -1.9 °C 21.9 °F /  -5.6 °C 30.38in /  1028.7hPa Calm   4.0mph /  6.4km/h 76% 0.00in /  0mm
14:53 29.1 °F /  -1.6 °C 22.5 °F /  -5.3 °C 30.38in /  1028.7hPa NW 0.9mph /  1.4km/h 4.0mph /  6.4km/h 76% 0.00in /  0mm
14:58 29.3 °F /  -1.5 °C 22.6 °F /  -5.2 °C 30.37in /  1028.3hPa Calm   2.0mph /  3.2km/h 76% 0.00in /  0mm
15:04 29.5 °F /  -1.4 °C 22.5 °F /  -5.3 °C 30.38in /  1028.7hPa WNW 4.0mph /  6.4km/h 5.0mph /  8km/h 75% 0.00in /  0mm
15:09 29.5 °F /  -1.4 °C 22.5 °F /  -5.3 °C 30.38in /  1028.7hPa WNW 4.9mph /  7.9km/h 7.0mph /  11.3km/h 75% 0.00in /  0mm
15:14 29.5 °F /  -1.4 °C 22.5 °F /  -5.3 °C 30.38in /  1028.7hPa Calm   1.0mph /  1.6km/h 75% 0.00in /  0mm
15:23 29.5 °F /  -1.4 °C 22.3 °F /  -5.4 °C 30.39in /  1029hPa SE 4.0mph /  6.4km/h 10.0mph /  16.1km/h 74% 0.00in /  0mm
15:31 29.8 °F /  -1.2 °C 22.8 °F /  -5.1 °C 30.39in /  1029hPa Calm     75% 0.00in /  0mm
15:44 29.3 °F /  -1.5 °C 22.1 °F /  -5.5 °C 30.40in /  1029.3hPa NW 6.0mph /  9.7km/h 6.0mph /  9.7km/h 74% 0.00in /  0mm
15:49 28.9 °F /  -1.7 °C 21.7 °F /  -5.7 °C 30.40in /  1029.3hPa Calm   4.0mph /  6.4km/h 74% 0.00in /  0mm
15:58 28.9 °F /  -1.7 °C 22.1 °F /  -5.5 °C 30.40in /  1029.3hPa NW 2.0mph /  3.2km/h 10.0mph /  16.1km/h 75% 0.00in /  0mm
16:04 28.8 °F /  -1.8 °C 21.9 °F /  -5.6 °C 30.40in /  1029.3hPa NW 4.0mph /  6.4km/h 8.0mph /  12.9km/h 75% 0.00in /  0mm
16:09 28.6 °F /  -1.9 °C 21.7 °F /  -5.7 °C 30.41in /  1029.7hPa Calm   7.0mph /  11.3km/h 75% 0.00in /  0mm
16:14 28.0 °F /  -2.2 °C 21.2 °F /  -6 °C 30.41in /  1029.7hPa NNW 2.9mph /  4.7km/h 8.0mph /  12.9km/h 75% 0.00in /  0mm
16:30 27.5 °F /  -2.5 °C 20.7 °F /  -6.3 °C 30.42in /  1030hPa Calm   4.0mph /  6.4km/h 75% 0.00in /  0mm
16:35 27.3 °F /  -2.6 °C 20.5 °F /  -6.4 °C 30.42in /  1030hPa NW 0.9mph /  1.4km/h 3.0mph /  4.8km/h 75% 0.00in /  0mm
16:55 27.3 °F /  -2.6 °C 20.1 °F /  -6.6 °C 30.43in /  1030.4hPa NNW 0.9mph /  1.4km/h 8.0mph /  12.9km/h 74% 0.00in /  0mm
17:03 27.1 °F /  -2.7 °C 19.9 °F /  -6.7 °C 30.43in /  1030.4hPa Calm   1.0mph /  1.6km/h 74% 0.00in /  0mm
17:13 27.0 °F /  -2.8 °C 19.8 °F /  -6.8 °C 30.43in /  1030.4hPa Calm   4.0mph /  6.4km/h 74% 0.00in /  0mm
17:18 26.8 °F /  -2.9 °C 19.6 °F /  -6.9 °C 30.43in /  1030.4hPa Calm   8.0mph /  12.9km/h 74% 0.00in /  0mm
17:24 26.6 °F /  -3 °C 19.4 °F /  -7 °C 30.44in /  1030.7hPa NW 4.9mph /  7.9km/h 5.0mph /  8km/h 74% 0.00in /  0mm
17:29 26.4 °F /  -3.1 °C 19.2 °F /  -7.1 °C 30.44in /  1030.7hPa WSW 6.0mph /  9.7km/h 7.0mph /  11.3km/h 74% 0.00in /  0mm
17:38 26.2 °F /  -3.2 °C 19.0 °F /  -7.2 °C 30.44in /  1030.7hPa WNW 2.9mph /  4.7km/h 3.0mph /  4.8km/h 74% 0.00in /  0mm
17:44 26.1 °F /  -3.3 °C 19.2 °F /  -7.1 °C 30.44in /  1030.7hPa Calm   7.0mph /  11.3km/h 75% 0.00in /  0mm
17:49 26.1 °F /  -3.3 °C 19.6 °F /  -6.9 °C 30.44in /  1030.7hPa Calm   6.0mph /  9.7km/h 76% 0.00in /  0mm
17:54 25.9 °F /  -3.4 °C 19.4 °F /  -7 °C 30.44in /  1030.7hPa NW 0.9mph /  1.4km/h 4.0mph /  6.4km/h 76% 0.00in /  0mm
17:59 25.7 °F /  -3.5 °C 19.2 °F /  -7.1 °C 30.45in /  1031hPa West 2.0mph /  3.2km/h 5.0mph /  8km/h 76% 0.00in /  0mm
18:04 25.5 °F /  -3.6 °C 19.0 °F /  -7.2 °C 30.45in /  1031hPa Calm   5.0mph /  8km/h 76% 0.00in /  0mm
18:12 25.3 °F /  -3.7 °C 18.9 °F /  -7.3 °C 30.45in /  1031hPa West 4.0mph /  6.4km/h 5.0mph /  8km/h 76% 0.00in /  0mm
18:21 25.2 °F /  -3.8 °C 18.7 °F /  -7.4 °C 30.45in /  1031hPa WNW 4.0mph /  6.4km/h 6.0mph /  9.7km/h 76% 0.00in /  0mm
18:26 25.2 °F /  -3.8 °C 18.7 °F /  -7.4 °C 30.45in /  1031hPa NW 0.9mph /  1.4km/h 4.0mph /  6.4km/h 76% 0.00in /  0mm
18:35 25.0 °F /  -3.9 °C 18.9 °F /  -7.3 °C 30.46in /  1031.4hPa Calm   5.0mph /  8km/h 77% 0.00in /  0mm
18:44 24.6 °F /  -4.1 °C 18.5 °F /  -7.5 °C 30.47in /  1031.7hPa NW 2.9mph /  4.7km/h 6.0mph /  9.7km/h 77% 0.00in /  0mm
18:53 24.6 °F /  -4.1 °C 18.5 °F /  -7.5 °C 30.47in /  1031.7hPa NW 4.0mph /  6.4km/h 12.0mph /  19.3km/h 77% 0.00in /  0mm
19:00 24.4 °F /  -4.2 °C 18.0 °F /  -7.8 °C 30.47in /  1031.7hPa Calm   13.0mph /  20.9km/h 76% 0.00in /  0mm
19:07 24.4 °F /  -4.2 °C 18.3 °F /  -7.6 °C 30.48in /  1032.1hPa WNW 8.1mph /  13km/h 10.0mph /  16.1km/h 77% 0.00in /  0mm
19:16 24.4 °F /  -4.2 °C 18.3 °F /  -7.6 °C 30.48in /  1032.1hPa WNW 4.0mph /  6.4km/h 5.0mph /  8km/h 77% 0.00in /  0mm
19:26 24.3 °F /  -4.3 °C 18.1 °F /  -7.7 °C 30.48in /  1032.1hPa WSW 2.0mph /  3.2km/h 9.0mph /  14.5km/h 77% 0.00in /  0mm
19:36 24.3 °F /  -4.3 °C 18.1 °F /  -7.7 °C 30.49in /  1032.4hPa ENE 0.9mph /  1.4km/h 5.0mph /  8km/h 77% 0.00in /  0mm
19:41 24.3 °F /  -4.3 °C 18.1 °F /  -7.7 °C 30.49in /  1032.4hPa West 0.9mph /  1.4km/h 7.0mph /  11.3km/h 77% 0.00in /  0mm
19:46 24.1 °F /  -4.4 °C 18.0 °F /  -7.8 °C 30.49in /  1032.4hPa NNW 0.9mph /  1.4km/h 12.0mph /  19.3km/h 77% 0.00in /  0mm
19:51 24.1 °F /  -4.4 °C 18.1 °F /  -7.7 °C 30.49in /  1032.4hPa Calm   5.0mph /  8km/h 78% 0.00in /  0mm
20:02 23.9 °F /  -4.5 °C 18.0 °F /  -7.8 °C 30.50in /  1032.7hPa Calm   4.0mph /  6.4km/h 78% 0.00in /  0mm
20:07 23.7 °F /  -4.6 °C 18.0 °F /  -7.8 °C 30.50in /  1032.7hPa NNW 2.9mph /  4.7km/h 8.0mph /  12.9km/h 78% 0.00in /  0mm
20:12 23.7 °F /  -4.6 °C 18.0 °F /  -7.8 °C 30.50in /  1032.7hPa NW 2.9mph /  4.7km/h 11.0mph /  17.7km/h 78% 0.00in /  0mm
20:17 23.5 °F /  -4.7 °C 17.8 °F /  -7.9 °C 30.50in /  1032.7hPa North 11.0mph /  17.7km/h 11.0mph /  17.7km/h 78% 0.00in /  0mm
20:22 23.5 °F /  -4.7 °C 17.8 °F /  -7.9 °C 30.50in /  1032.7hPa NE 0.9mph /  1.4km/h 7.0mph /  11.3km/h 78% 0.00in /  0mm
20:27 23.5 °F /  -4.7 °C 17.8 °F /  -7.9 °C 30.50in /  1032.7hPa West 4.0mph /  6.4km/h 14.0mph /  22.5km/h 78% 0.00in /  0mm
20:32 23.4 °F /  -4.8 °C 17.6 °F /  -8 °C 30.51in /  1033.1hPa North 0.9mph /  1.4km/h 10.0mph /  16.1km/h 78% 0.00in /  0mm
20:37 23.4 °F /  -4.8 °C 17.6 °F /  -8 °C 30.51in /  1033.1hPa North 2.0mph /  3.2km/h 7.0mph /  11.3km/h 78% 0.00in /  0mm
20:47 23.2 °F /  -4.9 °C 17.4 °F /  -8.1 °C 30.51in /  1033.1hPa Calm   10.0mph /  16.1km/h 78% 0.00in /  0mm
21:01 23.0 °F /  -5 °C 17.2 °F /  -8.2 °C 30.51in /  1033.1hPa Calm   8.0mph /  12.9km/h 78% 0.00in /  0mm
21:06 22.8 °F /  -5.1 °C 17.1 °F /  -8.3 °C 30.51in /  1033.1hPa NNW 2.9mph /  4.7km/h 6.0mph /  9.7km/h 78% 0.00in /  0mm
21:14 22.6 °F /  -5.2 °C 16.9 °F /  -8.4 °C 30.51in /  1033.1hPa Calm   1.0mph /  1.6km/h 78% 0.00in /  0mm
21:34 22.5 °F /  -5.3 °C 16.9 °F /  -8.4 °C 30.52in /  1033.4hPa Calm   5.0mph /  8km/h 79% 0.00in /  0mm
21:44 22.3 °F /  -5.4 °C 16.7 °F /  -8.5 °C 30.52in /  1033.4hPa Calm   5.0mph /  8km/h 79% 0.00in /  0mm
21:49 22.3 °F /  -5.4 °C 16.7 °F /  -8.5 °C 30.52in /  1033.4hPa NNW 2.9mph /  4.7km/h 12.0mph /  19.3km/h 79% 0.00in /  0mm
22:00 22.1 °F /  -5.5 °C 16.5 °F /  -8.6 °C 30.53in /  1033.7hPa NE 4.0mph /  6.4km/h 13.0mph /  20.9km/h 79% 0.00in /  0mm
22:05 21.9 °F /  -5.6 °C 16.3 °F /  -8.7 °C 30.53in /  1033.7hPa Calm   5.0mph /  8km/h 79% 0.00in /  0mm
22:18 21.7 °F /  -5.7 °C 16.5 °F /  -8.6 °C 30.53in /  1033.7hPa North 0.9mph /  1.4km/h 10.0mph /  16.1km/h 80% 0.00in /  0mm
22:27 21.7 °F /  -5.7 °C 16.5 °F /  -8.6 °C 30.53in /  1033.7hPa Calm   5.0mph /  8km/h 80% 0.00in /  0mm
22:41 21.6 °F /  -5.8 °C 16.3 °F /  -8.7 °C 30.54in /  1034.1hPa WNW 0.9mph /  1.4km/h 3.0mph /  4.8km/h 80% 0.00in /  0mm
22:46 21.4 °F /  -5.9 °C 16.2 °F /  -8.8 °C 30.54in /  1034.1hPa Calm   2.0mph /  3.2km/h 80% 0.00in /  0mm
22:51 21.4 °F /  -5.9 °C 16.2 °F /  -8.8 °C 30.54in /  1034.1hPa WNW 6.9mph /  11.1km/h 10.0mph /  16.1km/h 80% 0.00in /  0mm
23:03 21.0 °F /  -6.1 °C 15.6 °F /  -9.1 °C 30.55in /  1034.4hPa Calm   4.0mph /  6.4km/h 79% 0.00in /  0mm
23:08 21.0 °F /  -6.1 °C 15.6 °F /  -9.1 °C 30.55in /  1034.4hPa Calm   2.0mph /  3.2km/h 79% 0.00in /  0mm
23:15 20.8 °F /  -6.2 °C 15.1 °F /  -9.4 °C 30.55in /  1034.4hPa NE 2.9mph /  4.7km/h 3.0mph /  4.8km/h 78% 0.00in /  0mm
23:27 20.7 °F /  -6.3 °C 14.9 °F /  -9.5 °C 30.55in /  1034.4hPa Calm   9.0mph /  14.5km/h 78% 0.00in /  0mm
23:36 20.5 °F /  -6.4 °C 14.7 °F /  -9.6 °C 30.55in /  1034.4hPa NW 2.0mph /  3.2km/h 7.0mph /  11.3km/h 78% 0.00in /  0mm
23:42 20.3 °F /  -6.5 °C 14.9 °F /  -9.5 °C 30.55in /  1034.4hPa Calm     79% 0.00in /  0mm
23:48 20.3 °F /  -6.5 °C 14.5 °F /  -9.7 °C 30.55in /  1034.4hPa Calm   1.0mph /  1.6km/h 78% 0.00in /  0mm
23:53 20.1 °F /  -6.6 °C 14.4 °F /  -9.8 °C 30.55in /  1034.4hPa Calm   2.0mph /  3.2km/h 78% 0.00in /  0mm
23:59 20.1 °F /  -6.6 °C 14.4 °F /  -9.8 °C 30.55in /  1034.4hPa West 4.0mph /  6.4km/h 10.0mph /  16.1km/h 78% 0.00in /  0mm
Ellijay Weather
Compliments of Weather Underground - 2 mb